sensor_id;sensor_type;location;lat;lon;timestamp;pressure;altitude;pressure_sealevel;temperature;humidity
36062;BME280;22123;52.412;20.970;2023-01-04T00:01:26;101888.22;;;2.54;100.00
36062;BME280;22123;52.412;20.970;2023-01-04T00:03:52;101891.03;;;2.51;100.00
36062;BME280;22123;52.412;20.970;2023-01-04T00:06:18;101891.19;;;2.48;100.00
36062;BME280;22123;52.412;20.970;2023-01-04T00:08:44;101898.41;;;2.46;100.00
36062;BME280;22123;52.412;20.970;2023-01-04T00:11:11;101881.78;;;2.42;100.00
36062;BME280;22123;52.412;20.970;2023-01-04T00:13:37;101888.97;;;2.40;100.00
36062;BME280;22123;52.412;20.970;2023-01-04T00:16:04;101880.22;;;2.38;100.00
36062;BME280;22123;52.412;20.970;2023-01-04T00:18:37;101877.81;;;2.33;100.00
36062;BME280;22123;52.412;20.970;2023-01-04T00:21:08;101877.22;;;2.28;100.00
36062;BME280;22123;52.412;20.970;2023-01-04T00:23:34;101871.28;;;2.23;100.00
36062;BME280;22123;52.412;20.970;2023-01-04T00:26:00;101874.19;;;2.18;100.00
36062;BME280;22123;52.412;20.970;2023-01-04T00:28:25;101876.16;;;2.15;100.00
36062;BME280;22123;52.412;20.970;2023-01-04T00:30:51;101878.91;;;2.13;100.00
36062;BME280;22123;52.412;20.970;2023-01-04T00:33:16;101878.13;;;2.11;100.00
36062;BME280;22123;52.412;20.970;2023-01-04T00:35:42;101884.31;;;2.12;100.00
36062;BME280;22123;52.412;20.970;2023-01-04T00:38:08;101886.88;;;2.13;100.00
36062;BME280;22123;52.412;20.970;2023-01-04T00:40:33;101888.75;;;2.11;100.00
36062;BME280;22123;52.412;20.970;2023-01-04T00:42:59;101894.94;;;2.12;100.00
36062;BME280;22123;52.412;20.970;2023-01-04T00:45:25;101903.84;;;2.11;100.00
36062;BME280;22123;52.412;20.970;2023-01-04T00:47:50;101905.69;;;2.08;100.00
36062;BME280;22123;52.412;20.970;2023-01-04T00:50:16;101901.34;;;2.07;100.00
36062;BME280;22123;52.412;20.970;2023-01-04T00:52:42;101906.66;;;2.07;100.00
36062;BME280;22123;52.412;20.970;2023-01-04T00:55:07;101917.38;;;2.06;100.00
36062;BME280;22123;52.412;20.970;2023-01-04T00:57:33;101919.94;;;2.07;100.00
36062;BME280;22123;52.412;20.970;2023-01-04T00:59:59;101920.88;;;2.06;100.00
36062;BME280;22123;52.412;20.970;2023-01-04T01:02:24;101919.06;;;2.07;100.00
36062;BME280;22123;52.412;20.970;2023-01-04T01:04:50;101917.28;;;2.07;100.00
36062;BME280;22123;52.412;20.970;2023-01-04T01:07:16;101905.09;;;2.03;100.00
36062;BME280;22123;52.412;20.970;2023-01-04T01:09:41;101910.56;;;2.00;100.00
36062;BME280;22123;52.412;20.970;2023-01-04T01:12:07;101917.00;;;1.96;100.00
36062;BME280;22123;52.412;20.970;2023-01-04T01:14:32;101928.72;;;1.92;100.00
36062;BME280;22123;52.412;20.970;2023-01-04T01:16:58;101935.03;;;1.89;100.00
36062;BME280;22123;52.412;20.970;2023-01-04T01:19:27;101933.34;;;1.88;100.00
36062;BME280;22123;52.412;20.970;2023-01-04T01:21:53;101938.72;;;1.87;100.00
36062;BME280;22123;52.412;20.970;2023-01-04T01:24:19;101937.84;;;1.86;100.00
36062;BME280;22123;52.412;20.970;2023-01-04T01:26:45;101938.72;;;1.87;100.00
36062;BME280;22123;52.412;20.970;2023-01-04T01:29:10;101943.25;;;1.85;100.00
36062;BME280;22123;52.412;20.970;2023-01-04T01:31:36;101935.44;;;1.82;100.00
36062;BME280;22123;52.412;20.970;2023-01-04T01:34:09;101931.13;;;1.79;100.00
36062;BME280;22123;52.412;20.970;2023-01-04T01:36:35;101922.56;;;1.74;100.00
36062;BME280;22123;52.412;20.970;2023-01-04T01:39:00;101920.38;;;1.65;100.00
36062;BME280;22123;52.412;20.970;2023-01-04T01:41:27;101912.72;;;1.59;100.00
36062;BME280;22123;52.412;20.970;2023-01-04T01:43:57;101912.31;;;1.49;100.00
36062;BME280;22123;52.412;20.970;2023-01-04T01:46:39;101920.78;;;1.39;100.00
36062;BME280;22123;52.412;20.970;2023-01-04T01:51:37;101902.88;;;1.26;100.00
36062;BME280;22123;52.412;20.970;2023-01-04T01:54:07;101903.25;;;1.18;100.00
36062;BME280;22123;52.412;20.970;2023-01-04T01:56:35;101915.09;;;1.11;100.00
36062;BME280;22123;52.412;20.970;2023-01-04T01:59:02;101909.16;;;1.06;100.00
36062;BME280;22123;52.412;20.970;2023-01-04T02:01:28;101906.75;;;1.01;100.00
36062;BME280;22123;52.412;20.970;2023-01-04T02:03:53;101909.78;;;0.93;100.00
36062;BME280;22123;52.412;20.970;2023-01-04T02:06:21;101920.69;;;0.87;100.00
36062;BME280;22123;52.412;20.970;2023-01-04T02:08:49;101913.97;;;0.80;100.00
36062;BME280;22123;52.412;20.970;2023-01-04T02:11:15;101916.88;;;0.74;100.00
36062;BME280;22123;52.412;20.970;2023-01-04T02:13:40;101913.59;;;0.68;100.00
36062;BME280;22123;52.412;20.970;2023-01-04T02:21:43;101916.03;;;0.54;100.00
36062;BME280;22123;52.412;20.970;2023-01-04T02:37:02;101900.78;;;0.40;100.00
36062;BME280;22123;52.412;20.970;2023-01-04T02:39:34;101906.38;;;0.34;100.00
36062;BME280;22123;52.412;20.970;2023-01-04T02:44:42;101900.84;;;0.20;100.00
36062;BME280;22123;52.412;20.970;2023-01-04T02:47:13;101896.59;;;0.15;100.00
36062;BME280;22123;52.412;20.970;2023-01-04T02:49:40;101892.28;;;0.13;100.00
36062;BME280;22123;52.412;20.970;2023-01-04T02:52:06;101889.00;;;0.08;100.00
36062;BME280;22123;52.412;20.970;2023-01-04T02:54:32;101886.56;;;0.03;100.00
36062;BME280;22123;52.412;20.970;2023-01-04T02:57:07;101892.13;;;-0.03;100.00
36062;BME280;22123;52.412;20.970;2023-01-04T03:10:17;101894.88;;;-0.25;100.00
36062;BME280;22123;52.412;20.970;2023-01-04T03:12:48;101889.72;;;-0.28;100.00
36062;BME280;22123;52.412;20.970;2023-01-04T03:15:19;101884.56;;;-0.31;100.00
36062;BME280;22123;52.412;20.970;2023-01-04T03:17:51;101873.31;;;-0.37;100.00
36062;BME280;22123;52.412;20.970;2023-01-04T03:20:18;101863.91;;;-0.44;100.00
36062;BME280;22123;52.412;20.970;2023-01-04T03:22:52;101859.75;;;-0.49;100.00
36062;BME280;22123;52.412;20.970;2023-01-04T03:25:18;101858.22;;;-0.55;100.00
36062;BME280;22123;52.412;20.970;2023-01-04T03:27:46;101845.19;;;-0.60;100.00
36062;BME280;22123;52.412;20.970;2023-01-04T03:30:14;101841.84;;;-0.63;100.00
36062;BME280;22123;52.412;20.970;2023-01-04T03:32:46;101841.03;;;-0.65;100.00
36062;BME280;22123;52.412;20.970;2023-01-04T03:35:12;101833.28;;;-0.70;100.00
36062;BME280;22123;52.412;20.970;2023-01-04T03:42:55;101846.38;;;-0.88;100.00
36062;BME280;22123;52.412;20.970;2023-01-04T03:45:23;101841.34;;;-0.94;100.00
36062;BME280;22123;52.412;20.970;2023-01-04T03:47:55;101840.94;;;-1.05;100.00
36062;BME280;22123;52.412;20.970;2023-01-04T03:50:23;101851.09;;;-1.16;100.00
36062;BME280;22123;52.412;20.970;2023-01-04T03:52:49;101840.91;;;-1.26;100.00
36062;BME280;22123;52.412;20.970;2023-01-04T03:55:16;101838.44;;;-1.30;100.00
36062;BME280;22123;52.412;20.970;2023-01-04T03:57:43;101828.84;;;-1.33;100.00
36062;BME280;22123;52.412;20.970;2023-01-04T04:00:10;101827.31;;;-1.38;100.00
36062;BME280;22123;52.412;20.970;2023-01-04T04:02:36;101825.03;;;-1.48;100.00
36062;BME280;22123;52.412;20.970;2023-01-04T04:05:02;101836.88;;;-1.58;100.00
36062;BME280;22123;52.412;20.970;2023-01-04T04:07:28;101823.53;;;-1.77;100.00
36062;BME280;22123;52.412;20.970;2023-01-04T04:09:54;101774.75;;;-2.13;100.00
36062;BME280;22123;52.412;20.970;2023-01-04T04:12:21;101756.06;;;-2.30;100.00
36062;BME280;22123;52.412;20.970;2023-01-04T04:14:46;101835.56;;;-1.92;100.00
36062;BME280;22123;52.412;20.970;2023-01-04T04:17:12;101802.59;;;-2.29;100.00
36062;BME280;22123;52.412;20.970;2023-01-04T04:19:38;101740.94;;;-2.74;100.00
36062;BME280;22123;52.412;20.970;2023-01-04T04:22:04;101793.88;;;-2.55;100.00
36062;BME280;22123;52.412;20.970;2023-01-04T04:24:36;101808.88;;;-2.57;100.00
36062;BME280;22123;52.412;20.970;2023-01-04T04:27:02;101822.06;;;-2.57;100.00
36062;BME280;22123;52.412;20.970;2023-01-04T04:29:27;101782.66;;;-2.85;100.00
36062;BME280;22123;52.412;20.970;2023-01-04T04:31:53;101808.72;;;-2.77;100.00
36062;BME280;22123;52.412;20.970;2023-01-04T04:34:19;101769.44;;;-3.10;100.00
36062;BME280;22123;52.412;20.970;2023-01-04T04:36:45;101762.88;;;-3.24;100.00
36062;BME280;22123;52.412;20.970;2023-01-04T04:39:11;101764.72;;;-3.27;100.00
36062;BME280;22123;52.412;20.970;2023-01-04T04:41:39;101762.16;;;-3.29;100.00
36062;BME280;22123;52.412;20.970;2023-01-04T04:44:11;101832.97;;;-2.93;100.00
36062;BME280;22123;52.412;20.970;2023-01-04T04:46:37;101838.28;;;-2.94;100.00
36062;BME280;22123;52.412;20.970;2023-01-04T04:49:04;101789.22;;;-3.24;100.00
36062;BME280;22123;52.412;20.970;2023-01-04T04:51:30;101801.38;;;-3.20;100.00
36062;BME280;22123;52.412;20.970;2023-01-04T04:53:56;101789.22;;;-3.24;100.00
36062;BME280;22123;52.412;20.970;2023-01-04T04:56:22;101808.28;;;-3.16;100.00
36062;BME280;22123;52.412;20.970;2023-01-04T04:58:48;101763.53;;;-3.44;100.00
36062;BME280;22123;52.412;20.970;2023-01-04T05:01:15;101836.56;;;-2.95;100.00
36062;BME280;22123;52.412;20.970;2023-01-04T05:03:41;101745.16;;;-3.45;100.00
36062;BME280;22123;52.412;20.970;2023-01-04T05:06:07;101764.03;;;-3.33;100.00
36062;BME280;22123;52.412;20.970;2023-01-04T05:08:33;101783.94;;;-3.24;100.00
36062;BME280;22123;52.412;20.970;2023-01-04T05:10:59;101785.16;;;-3.34;100.00
36062;BME280;22123;52.412;20.970;2023-01-04T05:13:24;101810.50;;;-3.30;100.00
36062;BME280;22123;52.412;20.970;2023-01-04T05:15:51;101786.59;;;-3.52;100.00
36062;BME280;22123;52.412;20.970;2023-01-04T05:18:19;101822.09;;;-3.36;100.00
36062;BME280;22123;52.412;20.970;2023-01-04T05:20:46;101767.00;;;-3.70;100.00
36062;BME280;22123;52.412;20.970;2023-01-04T05:23:13;101814.66;;;-3.51;100.00
36062;BME280;22123;52.412;20.970;2023-01-04T05:25:40;101776.84;;;-3.77;100.00
36062;BME280;22123;52.412;20.970;2023-01-04T05:28:07;101804.50;;;-3.62;100.00
36062;BME280;22123;52.412;20.970;2023-01-04T05:30:33;101741.59;;;-3.99;100.00
36062;BME280;22123;52.412;20.970;2023-01-04T05:32:59;101808.28;;;-3.72;100.00
36062;BME280;22123;52.412;20.970;2023-01-04T05:35:25;101778.16;;;-3.90;100.00
36062;BME280;22123;52.412;20.970;2023-01-04T05:37:52;101772.03;;;-3.91;100.00
36062;BME280;22123;52.412;20.970;2023-01-04T05:40:19;101755.72;;;-4.02;100.00
36062;BME280;22123;52.412;20.970;2023-01-04T05:42:46;101802.22;;;-3.74;100.00
36062;BME280;22123;52.412;20.970;2023-01-04T05:45:13;101788.16;;;-3.73;100.00
36062;BME280;22123;52.412;20.970;2023-01-04T05:47:39;101753.63;;;-3.91;100.00
36062;BME280;22123;52.412;20.970;2023-01-04T05:50:06;101688.22;;;-4.31;100.00
36062;BME280;22123;52.412;20.970;2023-01-04T05:52:32;101782.28;;;-3.81;100.00
36062;BME280;22123;52.412;20.970;2023-01-04T05:54:58;101750.72;;;-4.11;100.00
36062;BME280;22123;52.412;20.970;2023-01-04T05:57:25;101725.94;;;-4.32;100.00
36062;BME280;22123;52.412;20.970;2023-01-04T05:59:51;101798.50;;;-3.97;100.00
36062;BME280;22123;52.412;20.970;2023-01-04T06:02:20;101796.91;;;-4.01;100.00
36062;BME280;22123;52.412;20.970;2023-01-04T06:04:46;101724.44;;;-4.41;100.00
36062;BME280;22123;52.412;20.970;2023-01-04T06:07:13;101783.00;;;-4.06;100.00
36062;BME280;22123;52.412;20.970;2023-01-04T06:09:39;101776.94;;;-4.08;100.00
36062;BME280;22123;52.412;20.970;2023-01-04T06:12:06;101748.66;;;-4.30;100.00
36062;BME280;22123;52.412;20.970;2023-01-04T06:14:32;101740.84;;;-4.33;100.00
36062;BME280;22123;52.412;20.970;2023-01-04T06:16:58;101766.72;;;-4.19;100.00
36062;BME280;22123;52.412;20.970;2023-01-04T06:19:24;101691.84;;;-4.65;100.00
36062;BME280;22123;52.412;20.970;2023-01-04T06:21:50;101729.59;;;-4.38;100.00
36062;BME280;22123;52.412;20.970;2023-01-04T06:24:16;101666.78;;;-4.77;100.00
36062;BME280;22123;52.412;20.970;2023-01-04T06:26:42;101682.41;;;-4.73;100.00
36062;BME280;22123;52.412;20.970;2023-01-04T06:29:08;101679.03;;;-4.76;100.00
36062;BME280;22123;52.412;20.970;2023-01-04T06:31:33;101703.22;;;-4.65;100.00
36062;BME280;22123;52.412;20.970;2023-01-04T06:33:59;101733.50;;;-4.51;100.00
36062;BME280;22123;52.412;20.970;2023-01-04T06:36:26;101669.72;;;-4.88;100.00
36062;BME280;22123;52.412;20.970;2023-01-04T06:38:52;101717.00;;;-4.57;100.00
36062;BME280;22123;52.412;20.970;2023-01-04T06:41:18;101692.06;;;-4.73;100.00
36062;BME280;22123;52.412;20.970;2023-01-04T06:43:44;101677.09;;;-4.71;100.00
36062;BME280;22123;52.412;20.970;2023-01-04T06:46:10;101692.63;;;-4.62;100.00
36062;BME280;22123;52.412;20.970;2023-01-04T06:48:36;101638.16;;;-4.86;100.00
36062;BME280;22123;52.412;20.970;2023-01-04T06:51:02;101662.38;;;-4.77;100.00
36062;BME280;22123;52.412;20.970;2023-01-04T06:53:28;101695.78;;;-4.50;100.00
36062;BME280;22123;52.412;20.970;2023-01-04T06:55:54;101729.41;;;-4.32;100.00
36062;BME280;22123;52.412;20.970;2023-01-04T06:58:19;101713.91;;;-4.41;100.00
36062;BME280;22123;52.412;20.970;2023-01-04T07:00:45;101729.31;;;-4.29;100.00
36062;BME280;22123;52.412;20.970;2023-01-04T07:03:12;101748.09;;;-4.11;100.00
36062;BME280;22123;52.412;20.970;2023-01-04T07:05:38;101752.28;;;-4.06;100.00
36062;BME280;22123;52.412;20.970;2023-01-04T07:08:04;101694.69;;;-4.43;100.00
36062;BME280;22123;52.412;20.970;2023-01-04T07:10:30;101712.78;;;-4.32;100.00
36062;BME280;22123;52.412;20.970;2023-01-04T07:12:55;101711.94;;;-4.33;100.00
36062;BME280;22123;52.412;20.970;2023-01-04T07:15:21;101718.63;;;-4.23;100.00
36062;BME280;22123;52.412;20.970;2023-01-04T07:17:49;101716.06;;;-4.24;100.00
36062;BME280;22123;52.412;20.970;2023-01-04T07:20:15;101721.81;;;-4.13;100.00
36062;BME280;22123;52.412;20.970;2023-01-04T07:22:41;101744.13;;;-3.96;100.00
36062;BME280;22123;52.412;20.970;2023-01-04T07:25:08;101733.63;;;-3.96;100.00
36062;BME280;22123;52.412;20.970;2023-01-04T07:27:34;101734.41;;;-3.94;100.00
36062;BME280;22123;52.412;20.970;2023-01-04T07:30:00;101677.41;;;-4.22;100.00
36062;BME280;22123;52.412;20.970;2023-01-04T07:32:26;101730.75;;;-3.89;100.00
36062;BME280;22123;52.412;20.970;2023-01-04T07:34:51;101735.00;;;-3.85;100.00
36062;BME280;22123;52.412;20.970;2023-01-04T07:37:17;101685.47;;;-4.00;100.00
36062;BME280;22123;52.412;20.970;2023-01-04T07:39:43;101701.53;;;-3.81;100.00
36062;BME280;22123;52.412;20.970;2023-01-04T07:42:10;101663.03;;;-3.83;100.00
36062;BME280;22123;52.412;20.970;2023-01-04T07:44:36;101661.22;;;-3.55;100.00
36062;BME280;22123;52.412;20.970;2023-01-04T07:47:02;101690.84;;;-3.23;100.00
36062;BME280;22123;52.412;20.970;2023-01-04T07:49:28;101714.50;;;-2.96;100.00
36062;BME280;22123;52.412;20.970;2023-01-04T07:51:54;101696.47;;;-2.83;100.00
36062;BME280;22123;52.412;20.970;2023-01-04T07:54:20;101704.38;;;-2.59;100.00
36062;BME280;22123;52.412;20.970;2023-01-04T07:56:46;101701.91;;;-2.40;100.00
36062;BME280;22123;52.412;20.970;2023-01-04T07:59:13;101689.88;;;-2.24;100.00
36062;BME280;22123;52.412;20.970;2023-01-04T08:01:39;101691.94;;;-2.10;100.00
36062;BME280;22123;52.412;20.970;2023-01-04T08:04:05;101672.31;;;-2.03;100.00
36062;BME280;22123;52.412;20.970;2023-01-04T08:06:31;101672.81;;;-1.93;100.00
36062;BME280;22123;52.412;20.970;2023-01-04T08:08:57;101678.66;;;-1.85;100.00
36062;BME280;22123;52.412;20.970;2023-01-04T08:11:22;101670.41;;;-1.77;100.00
36062;BME280;22123;52.412;20.970;2023-01-04T08:13:48;101676.25;;;-1.69;100.00
36062;BME280;22123;52.412;20.970;2023-01-04T08:16:21;101663.44;;;-1.58;100.00
36062;BME280;22123;52.412;20.970;2023-01-04T08:18:51;101656.66;;;-1.43;100.00
36062;BME280;22123;52.412;20.970;2023-01-04T08:21:17;101650.78;;;-1.29;100.00
36062;BME280;22123;52.412;20.970;2023-01-04T08:23:43;101636.88;;;-1.13;100.00
36062;BME280;22123;52.412;20.970;2023-01-04T08:26:10;101638.72;;;-0.95;100.00
36062;BME280;22123;52.412;20.970;2023-01-04T08:28:36;101640.44;;;-0.75;100.00
36062;BME280;22123;52.412;20.970;2023-01-04T08:31:09;101628.94;;;-0.55;100.00
36062;BME280;22123;52.412;20.970;2023-01-04T08:33:36;101615.69;;;-0.36;100.00
36062;BME280;22123;52.412;20.970;2023-01-04T08:41:03;101620.28;;;-0.20;100.00
36062;BME280;22123;52.412;20.970;2023-01-04T08:43:29;101614.81;;;-0.17;100.00
36062;BME280;22123;52.412;20.970;2023-01-04T08:45:56;101612.88;;;-0.13;100.00
36062;BME280;22123;52.412;20.970;2023-01-04T08:48:21;101629.81;;;0.02;100.00
36062;BME280;22123;52.412;20.970;2023-01-04T08:50:47;101626.88;;;0.25;100.00
36062;BME280;22123;52.412;20.970;2023-01-04T08:53:13;101616.75;;;0.51;100.00
36062;BME280;22123;52.412;20.970;2023-01-04T08:55:48;101617.31;;;0.74;100.00
36062;BME280;22123;52.412;20.970;2023-01-04T08:58:14;101617.00;;;0.97;100.00
36062;BME280;22123;52.412;20.970;2023-01-04T09:00:39;101615.56;;;1.08;100.00
36062;BME280;22123;52.412;20.970;2023-01-04T09:03:05;101622.06;;;1.18;100.00
36062;BME280;22123;52.412;20.970;2023-01-04T09:05:31;101615.41;;;1.27;100.00
36062;BME280;22123;52.412;20.970;2023-01-04T09:07:58;101602.16;;;1.43;100.00
36062;BME280;22123;52.412;20.970;2023-01-04T09:10:23;101597.28;;;1.67;100.00
36062;BME280;22123;52.412;20.970;2023-01-04T09:12:49;101583.34;;;1.94;100.00
36062;BME280;22123;52.412;20.970;2023-01-04T09:15:14;101588.91;;;2.05;100.00
36062;BME280;22123;52.412;20.970;2023-01-04T09:17:40;101582.56;;;2.07;100.00
36062;BME280;22123;52.412;20.970;2023-01-04T09:20:06;101564.06;;;2.06;100.00
36062;BME280;22123;52.412;20.970;2023-01-04T09:22:31;101560.53;;;2.05;100.00
36062;BME280;22123;52.412;20.970;2023-01-04T09:24:57;101555.03;;;2.08;100.00
36062;BME280;22123;52.412;20.970;2023-01-04T09:27:23;101550.31;;;2.14;100.00
36062;BME280;22123;52.412;20.970;2023-01-04T09:29:48;101542.66;;;2.23;100.00
36062;BME280;22123;52.412;20.970;2023-01-04T09:32:14;101545.88;;;2.29;100.00
36062;BME280;22123;52.412;20.970;2023-01-04T09:34:40;101536.03;;;2.31;100.00
36062;BME280;22123;52.412;20.970;2023-01-04T09:37:05;101541.63;;;2.26;100.00
36062;BME280;22123;52.412;20.970;2023-01-04T09:39:31;101540.94;;;2.22;100.00
36062;BME280;22123;52.412;20.970;2023-01-04T09:41:57;101552.03;;;2.15;100.00
36062;BME280;22123;52.412;20.970;2023-01-04T09:46:50;101520.88;;;2.02;100.00
36062;BME280;22123;52.412;20.970;2023-01-04T09:49:23;101517.38;;;2.02;100.00
36062;BME280;22123;52.412;20.970;2023-01-04T09:51:54;101511.97;;;2.03;100.00
36062;BME280;22123;52.412;20.970;2023-01-04T09:54:21;101507.06;;;2.12;100.00
36062;BME280;22123;52.412;20.970;2023-01-04T09:56:50;101507.63;;;2.31;100.00
36062;BME280;22123;52.412;20.970;2023-01-04T09:59:17;101490.75;;;2.47;100.00
36062;BME280;22123;52.412;20.970;2023-01-04T10:01:48;101493.31;;;2.63;100.00
36062;BME280;22123;52.412;20.970;2023-01-04T10:04:19;101486.47;;;2.73;100.00
36062;BME280;22123;52.412;20.970;2023-01-04T10:06:47;101479.94;;;2.78;100.00
36062;BME280;22123;52.412;20.970;2023-01-04T10:09:13;101479.03;;;2.92;100.00
36062;BME280;22123;52.412;20.970;2023-01-04T10:19:58;101434.09;;;3.29;100.00
36062;BME280;22123;52.412;20.970;2023-01-04T10:22:24;101431.13;;;3.34;100.00
36062;BME280;22123;52.412;20.970;2023-01-04T10:27:36;101417.16;;;3.30;100.00
36062;BME280;22123;52.412;20.970;2023-01-04T10:35:00;101369.69;;;3.37;100.00
36062;BME280;22123;52.412;20.970;2023-01-04T10:37:31;101348.09;;;3.42;100.00
36062;BME280;22123;52.412;20.970;2023-01-04T10:39:58;101341.41;;;3.49;100.00
36062;BME280;22123;52.412;20.970;2023-01-04T10:44:54;101323.94;;;3.58;100.00
36062;BME280;22123;52.412;20.970;2023-01-04T10:47:28;101306.78;;;3.62;100.00
36062;BME280;22123;52.412;20.970;2023-01-04T10:49:58;101303.50;;;3.71;100.00
36062;BME280;22123;52.412;20.970;2023-01-04T10:54:52;101287.28;;;3.87;100.00
36062;BME280;22123;52.412;20.970;2023-01-04T10:59:50;101273.94;;;4.00;100.00
36062;BME280;22123;52.412;20.970;2023-01-04T11:02:21;101264.78;;;4.04;100.00
36062;BME280;22123;52.412;20.970;2023-01-04T11:07:19;101264.81;;;4.15;100.00
36062;BME280;22123;52.412;20.970;2023-01-04T11:09:54;101252.03;;;4.21;100.00
36062;BME280;22123;52.412;20.970;2023-01-04T11:12:22;101268.75;;;4.23;100.00
36062;BME280;22123;52.412;20.970;2023-01-04T11:14:48;101265.66;;;4.29;100.00
36062;BME280;22123;52.412;20.970;2023-01-04T11:17:14;101264.25;;;4.36;100.00
36062;BME280;22123;52.412;20.970;2023-01-04T11:19:39;101251.53;;;4.40;100.00
36062;BME280;22123;52.412;20.970;2023-01-04T11:22:23;101236.78;;;4.47;100.00
36062;BME280;22123;52.412;20.970;2023-01-04T11:24:51;101228.19;;;4.55;100.00
36062;BME280;22123;52.412;20.970;2023-01-04T11:27:23;101222.66;;;4.58;100.00
36062;BME280;22123;52.412;20.970;2023-01-04T11:30:12;101209.22;;;4.59;100.00
36062;BME280;22123;52.412;20.970;2023-01-04T11:32:41;101199.38;;;4.60;100.00
36062;BME280;22123;52.412;20.970;2023-01-04T11:35:08;101194.28;;;4.57;100.00
36062;BME280;22123;52.412;20.970;2023-01-04T11:37:36;101181.31;;;4.52;100.00
36062;BME280;22123;52.412;20.970;2023-01-04T11:40:17;101183.22;;;4.50;100.00
36062;BME280;22123;52.412;20.970;2023-01-04T11:42:43;101174.63;;;4.46;100.00
36062;BME280;22123;52.412;20.970;2023-01-04T11:45:19;101148.50;;;4.39;100.00
36062;BME280;22123;52.412;20.970;2023-01-04T11:47:47;101147.84;;;4.48;100.00
36062;BME280;22123;52.412;20.970;2023-01-04T11:50:26;101142.84;;;4.43;100.00
36062;BME280;22123;52.412;20.970;2023-01-04T11:52:57;101131.78;;;4.37;100.00
36062;BME280;22123;52.412;20.970;2023-01-04T11:55:27;101121.38;;;4.33;100.00
36062;BME280;22123;52.412;20.970;2023-01-04T11:58:10;101101.22;;;4.29;100.00
36062;BME280;22123;52.412;20.970;2023-01-04T12:00:36;101104.00;;;4.28;100.00
36062;BME280;22123;52.412;20.970;2023-01-04T12:03:15;101096.13;;;4.26;100.00
36062;BME280;22123;52.412;20.970;2023-01-04T12:05:41;101092.84;;;4.23;100.00
36062;BME280;22123;52.412;20.970;2023-01-04T12:10:45;101087.50;;;4.23;100.00
36062;BME280;22123;52.412;20.970;2023-01-04T12:13:10;101077.84;;;4.22;100.00
36062;BME280;22123;52.412;20.970;2023-01-04T12:15:38;101065.22;;;4.24;100.00
36062;BME280;22123;52.412;20.970;2023-01-04T12:18:13;101074.19;;;4.23;100.00
36062;BME280;22123;52.412;20.970;2023-01-04T12:20:40;101066.19;;;4.23;100.00
36062;BME280;22123;52.412;20.970;2023-01-04T12:23:07;101051.91;;;4.24;100.00
36062;BME280;22123;52.412;20.970;2023-01-04T12:25:34;101051.41;;;4.30;100.00
36062;BME280;22123;52.412;20.970;2023-01-04T12:28:03;101046.59;;;4.35;100.00
36062;BME280;22123;52.412;20.970;2023-01-04T12:30:39;101030.59;;;4.35;100.00
36062;BME280;22123;52.412;20.970;2023-01-04T12:35:59;101010.00;;;4.37;100.00
36062;BME280;22123;52.412;20.970;2023-01-04T12:41:10;101003.94;;;4.35;100.00
36062;BME280;22123;52.412;20.970;2023-01-04T12:43:36;100997.16;;;4.31;100.00
36062;BME280;22123;52.412;20.970;2023-01-04T12:48:46;100982.84;;;4.21;100.00
36062;BME280;22123;52.412;20.970;2023-01-04T12:51:15;100981.38;;;4.16;100.00
36062;BME280;22123;52.412;20.970;2023-01-04T12:53:51;100972.91;;;4.11;100.00
36062;BME280;22123;52.412;20.970;2023-01-04T12:56:17;100968.53;;;4.10;100.00
36062;BME280;22123;52.412;20.970;2023-01-04T13:01:27;100946.47;;;4.08;100.00
36062;BME280;22123;52.412;20.970;2023-01-04T13:03:54;100933.38;;;4.05;100.00
36062;BME280;22123;52.412;20.970;2023-01-04T13:06:21;100927.34;;;4.03;100.00
36062;BME280;22123;52.412;20.970;2023-01-04T13:08:47;100922.38;;;3.98;100.00
36062;BME280;22123;52.412;20.970;2023-01-04T13:11:22;100907.69;;;3.93;100.00
36062;BME280;22123;52.412;20.970;2023-01-04T13:13:57;100908.66;;;3.92;100.00
36062;BME280;22123;52.412;20.970;2023-01-04T13:16:35;100899.19;;;3.88;100.00
36062;BME280;22123;52.412;20.970;2023-01-04T13:19:21;100895.06;;;3.83;100.00
36062;BME280;22123;52.412;20.970;2023-01-04T13:21:48;100901.59;;;3.79;100.00
36062;BME280;22123;52.412;20.970;2023-01-04T13:24:23;100894.84;;;3.75;100.00
36062;BME280;22123;52.412;20.970;2023-01-04T13:26:50;100890.59;;;3.73;100.00
36062;BME280;22123;52.412;20.970;2023-01-04T13:29:34;100891.53;;;3.72;100.00
36062;BME280;22123;52.412;20.970;2023-01-04T13:34:28;100871.09;;;3.72;100.00
36062;BME280;22123;52.412;20.970;2023-01-04T13:37:19;100862.88;;;3.75;100.00
36062;BME280;22123;52.412;20.970;2023-01-04T13:39:42;100847.84;;;3.74;100.00
36062;BME280;22123;52.412;20.970;2023-01-04T13:42:22;100834.78;;;3.71;100.00
36062;BME280;22123;52.412;20.970;2023-01-04T13:47:18;100806.94;;;3.75;100.00
36062;BME280;22123;52.412;20.970;2023-01-04T13:49:43;100814.06;;;3.75;100.00
36062;BME280;22123;52.412;20.970;2023-01-04T13:52:28;100808.88;;;3.73;100.00
36062;BME280;22123;52.412;20.970;2023-01-04T14:00:20;100804.28;;;3.75;100.00
36062;BME280;22123;52.412;20.970;2023-01-04T14:02:47;100798.97;;;3.75;100.00
36062;BME280;22123;52.412;20.970;2023-01-04T14:05:16;100791.69;;;3.77;100.00
36062;BME280;22123;52.412;20.970;2023-01-04T14:07:43;100783.69;;;3.77;100.00
36062;BME280;22123;52.412;20.970;2023-01-04T14:10:14;100785.28;;;3.80;100.00
36062;BME280;22123;52.412;20.970;2023-01-04T14:12:42;100772.94;;;3.79;100.00
36062;BME280;22123;52.412;20.970;2023-01-04T14:17:47;100759.47;;;3.80;100.00